This is the latest recevied weather packets stored in our database for station/object KJ6LNH-1. If no packets are shown the sender has not sent any weather packets the latest 1 day(s).
| Time | Temp. | Humidity | Pressure | Rain* | Wind** | Luminosity | Snow |
|---|---|---|---|---|---|---|---|
| 1836274678 | 20.56° C | 70% | 1012.3 hPa | 0 mm | 0.89 m/s, 161° | - | - |
| 1836274529 | 20° C | 71% | 1012.4 hPa | 0 mm | 0.89 m/s, 284° | - | - |
| 1836274379 | 20.56° C | 70% | 1012.3 hPa | 0 mm | 2.24 m/s, 136° | - | - |
| 1836274228 | 20.56° C | 70% | 1012.3 hPa | 0 mm | 1.79 m/s, 314° | - | - |
| 1836274078 | 20.56° C | 68% | 1012.3 hPa | 0 mm | 2.24 m/s, 45° | - | - |
| 1778041807 | 12.78° C | 82% | 1015.9 hPa | 0 mm | 1.34 m/s, 212° | - | - |
| 1778041507 | 12.78° C | 81% | 1015.8 hPa | 0 mm | 1.34 m/s, 265° | - | - |
| 1778041207 | 13.33° C | 81% | 1015.7 hPa | 0 mm | 1.34 m/s, 253° | - | - |
| 1778040908 | 13.33° C | 81% | 1015.7 hPa | 0 mm | 1.34 m/s, 200° | - | - |
| 1778040609 | 13.33° C | 81% | 1015.6 hPa | 0 mm | 1.34 m/s, 225° | - | - |
| 1778040008 | 13.33° C | 80% | 1015.5 hPa | 0 mm | 1.79 m/s, 223° | - | - |
| 1778039707 | 13.33° C | 80% | 1015.5 hPa | 0 mm | 1.79 m/s, 247° | - | - |
| 1778039108 | 13.33° C | 79% | 1015.4 hPa | 0 mm | 2.68 m/s, 236° | - | - |
| 1778038817 | 13.89° C | 79% | 1015.4 hPa | 0 mm | 1.79 m/s, 212° | - | - |
| 1778038508 | 13.89° C | 78% | 1015.3 hPa | 0 mm | 1.79 m/s, 260° | - | - |
| 1778038207 | 13.89° C | 78% | 1015.2 hPa | 0 mm | 1.79 m/s, 272° | - | - |
| 1778037908 | 13.89° C | 78% | 1015.1 hPa | 0 mm | 1.34 m/s, 240° | - | - |
| 1778037607 | 13.89° C | 78% | 1014.9 hPa | 0 mm | 1.34 m/s, 291° | - | - |
| 1778037009 | 13.89° C | 77% | 1014.8 hPa | 0 mm | 1.34 m/s, 191° | - | - |
| 1778036410 | 13.89° C | 76% | 1014.7 hPa | 0 mm | 1.34 m/s, 194° | - | - |
| 1778036107 | 13.89° C | 76% | 1014.7 hPa | 0 mm | 2.24 m/s, 235° | - | - |
| 1778035807 | 14.44° C | 76% | 1014.7 hPa | 0 mm | 0.89 m/s, 240° | - | - |
| 1778035508 | 14.44° C | 76% | 1014.6 hPa | 0 mm | 2.24 m/s, 234° | - | - |
| 1778034908 | 14.44° C | 76% | 1014.5 hPa | 0 mm | 2.24 m/s, 236° | - | - |
| 1778034608 | 14.44° C | 75% | 1014.5 hPa | 0 mm | 2.68 m/s, 212° | - | - |
* Rain latest hour (hover to see other rain measurements)
** Current wind speed in m/s (hover to see current wind gust speed)